createdAt,value
2019-04-22T00:03:52.182Z,100.00
2019-04-22T00:09:13.805Z,100.00
2019-04-22T00:14:11.856Z,100.00
2019-04-22T00:19:22.686Z,100.00
2019-04-22T00:24:27.568Z,100.00
2019-04-22T00:29:50.163Z,100.00
2019-04-22T00:34:37.162Z,100.00
2019-04-22T00:39:42.629Z,100.00
2019-04-22T00:44:47.046Z,100.00
2019-04-22T00:55:06.034Z,100.00
2019-04-22T01:00:05.542Z,100.00
2019-04-22T01:05:09.780Z,100.00
2019-04-22T01:10:13.036Z,100.00
2019-04-22T01:15:19.189Z,100.00
2019-04-22T01:20:29.456Z,100.00
2019-04-22T01:25:21.690Z,100.00
2019-04-22T01:30:22.159Z,100.00
2019-04-22T01:35:25.460Z,100.00
2019-04-22T01:40:45.521Z,100.00
2019-04-22T01:45:45.109Z,100.00
2019-04-22T01:50:50.082Z,100.00
2019-04-22T01:55:59.037Z,100.00
2019-04-22T02:06:44.366Z,100.00
2019-04-22T02:11:54.460Z,100.00
2019-04-22T02:16:56.233Z,100.00
2019-04-22T02:21:56.537Z,100.00
2019-04-22T02:26:54.553Z,100.00
2019-04-22T02:32:13.366Z,100.00
2019-04-22T02:37:13.368Z,100.00
2019-04-22T02:47:20.907Z,100.00
2019-04-22T02:52:34.845Z,100.00
2019-04-22T03:07:40.943Z,100.00
2019-04-22T03:12:41.821Z,100.00
2019-04-22T03:17:51.726Z,100.00
2019-04-22T03:23:00.295Z,100.00
2019-04-22T03:28:14.433Z,100.00
2019-04-22T03:33:10.989Z,100.00
2019-04-22T03:38:28.916Z,100.00
2019-04-22T03:48:17.701Z,100.00
2019-04-22T03:53:21.245Z,100.00
2019-04-22T03:58:25.395Z,100.00
2019-04-22T04:03:28.370Z,100.00
2019-04-22T04:08:33.375Z,100.00
2019-04-22T04:13:39.486Z,100.00
2019-04-22T04:18:57.817Z,100.00
2019-04-22T04:24:22.467Z,100.00
2019-04-22T04:29:05.070Z,100.00
2019-04-22T04:34:03.669Z,100.00
2019-04-22T04:39:10.915Z,100.00
2019-04-22T04:44:34.244Z,100.00
2019-04-22T04:49:19.145Z,100.00
2019-04-22T04:54:31.701Z,100.00
2019-04-22T04:59:41.829Z,100.00
2019-04-22T05:04:51.150Z,100.00
2019-04-22T05:14:41.574Z,100.00
2019-04-22T05:24:43.285Z,100.00
2019-04-22T05:34:52.814Z,100.00
2019-04-22T05:40:06.581Z,100.00
2019-04-22T05:45:05.244Z,100.00
2019-04-22T05:50:03.582Z,100.00
2019-04-22T05:55:22.683Z,100.00
2019-04-22T06:00:14.588Z,100.00
2019-04-22T06:05:17.367Z,100.00
2019-04-22T06:10:29.595Z,100.00
2019-04-22T06:15:29.070Z,100.00
2019-04-22T06:20:36.951Z,100.00
2019-04-22T06:25:58.493Z,74.80
2019-04-22T06:30:53.880Z,69.89
2019-04-22T06:35:48.671Z,99.93
2019-04-22T06:40:56.760Z,100.00
2019-04-22T06:46:11.413Z,100.00
2019-04-22T06:51:09.461Z,100.00
2019-04-22T06:56:12.481Z,100.00
2019-04-22T07:06:26.561Z,100.00
2019-04-22T07:11:18.848Z,100.00
2019-04-22T07:16:38.147Z,100.00
2019-04-22T07:21:44.199Z,100.00
2019-04-22T07:26:51.260Z,97.12
2019-04-22T07:31:56.273Z,95.50
2019-04-22T07:37:12.513Z,79.90
2019-04-22T07:41:56.127Z,87.87
2019-04-22T07:47:15.254Z,93.65
2019-04-22T07:52:09.520Z,82.92
2019-04-22T07:57:22.744Z,81.82
2019-04-22T08:02:16.287Z,79.29
2019-04-22T08:07:24.182Z,80.30
2019-04-22T08:12:28.143Z,77.99
2019-04-22T08:17:52.071Z,74.43
2019-04-22T08:22:39.469Z,71.41
2019-04-22T08:27:35.594Z,76.05
2019-04-22T08:37:50.956Z,68.99
2019-04-22T08:43:02.166Z,70.68
2019-04-22T08:47:54.853Z,66.74
2019-04-22T08:53:02.052Z,64.10
2019-04-22T09:03:10.346Z,60.08
2019-04-22T09:08:14.264Z,61.97
2019-04-22T09:13:13.925Z,61.05
2019-04-22T09:18:25.129Z,62.94
2019-04-22T09:28:33.199Z,65.86
2019-04-22T09:33:32.102Z,62.64
2019-04-22T09:43:49.032Z,59.16
2019-04-22T09:48:50.326Z,53.74
2019-04-22T09:54:02.403Z,54.21
2019-04-22T09:58:59.003Z,50.86
2019-04-22T10:04:00.631Z,50.85
2019-04-22T10:09:29.869Z,48.50
2019-04-22T10:14:12.493Z,51.56
2019-04-22T10:19:18.664Z,50.63
2019-04-22T10:24:36.931Z,48.24
2019-04-22T10:29:38.598Z,46.33
2019-04-22T10:34:16.892Z,39.82
2019-04-22T10:39:12.677Z,38.13
2019-04-22T10:44:15.340Z,37.42
2019-04-22T10:49:18.198Z,38.06
2019-04-22T10:54:20.865Z,36.61
2019-04-22T10:59:24.702Z,33.84
2019-04-22T11:04:28.507Z,35.22
2019-04-22T11:09:31.060Z,35.60
2019-04-22T11:14:34.726Z,36.12
2019-04-22T11:19:37.351Z,34.93
2019-04-22T11:24:41.059Z,35.84
2019-04-22T11:29:43.849Z,34.58
2019-04-22T11:34:51.124Z,33.72
2019-04-22T11:40:04.611Z,33.19
2019-04-22T11:44:59.348Z,35.97
2019-04-22T11:50:02.080Z,35.39
2019-04-22T11:55:06.477Z,35.85
2019-04-22T12:00:10.261Z,31.45
2019-04-22T12:05:14.234Z,31.10
2019-04-22T12:10:28.535Z,33.04
2019-04-22T12:15:22.662Z,31.73
2019-04-22T12:20:29.337Z,33.40
2019-04-22T12:25:46.433Z,30.21
2019-04-22T12:30:39.436Z,31.43
2019-04-22T12:35:42.326Z,32.75
2019-04-22T12:40:52.265Z,31.08
2019-04-22T12:45:50.138Z,30.27
2019-04-22T12:50:56.453Z,33.14
2019-04-22T12:55:59.451Z,31.94
2019-04-22T13:01:04.988Z,33.51
2019-04-22T13:06:09.870Z,30.46
2019-04-22T13:11:19.468Z,34.05
2019-04-22T13:16:20.683Z,32.24
2019-04-22T13:21:22.889Z,32.55
2019-04-22T13:26:25.451Z,32.85
2019-04-22T13:31:29.036Z,34.21
2019-04-22T13:36:31.814Z,34.01
2019-04-22T13:41:44.006Z,32.36
2019-04-22T13:46:41.113Z,33.58
2019-04-22T13:57:10.282Z,31.21
2019-04-22T14:02:16.906Z,30.84
2019-04-22T14:07:19.123Z,33.23
2019-04-22T14:12:21.766Z,31.17
2019-04-22T14:17:25.229Z,29.22
2019-04-22T14:22:28.343Z,31.93
2019-04-22T14:27:44.333Z,31.54
2019-04-22T14:32:37.952Z,30.88
2019-04-22T14:37:43.186Z,31.74
2019-04-22T14:43:07.135Z,30.84
2019-04-22T14:48:19.997Z,29.87
2019-04-22T14:53:19.415Z,30.13
2019-04-22T14:58:01.182Z,31.10
2019-04-22T15:03:03.918Z,31.75
2019-04-22T15:08:08.855Z,32.14
2019-04-22T15:13:11.657Z,33.84
2019-04-22T15:18:44.059Z,32.94
2019-04-22T15:23:46.717Z,32.18
2019-04-22T15:28:53.430Z,31.04
2019-04-22T15:33:58.454Z,31.33
2019-04-22T15:39:05.106Z,32.58
2019-04-22T15:44:08.008Z,32.35
2019-04-22T15:49:11.786Z,33.22
2019-04-22T15:54:16.473Z,31.50
2019-04-22T15:59:40.695Z,33.47
2019-04-22T16:04:26.306Z,31.42
2019-04-22T16:09:31.405Z,31.30
2019-04-22T16:14:41.210Z,32.26
2019-04-22T16:19:39.066Z,31.27
2019-04-22T16:24:58.277Z,32.38
2019-04-22T16:30:03.661Z,32.26
2019-04-22T16:35:08.713Z,34.64
2019-04-22T16:40:12.427Z,32.21
2019-04-22T16:45:15.725Z,31.97
2019-04-22T16:50:20.928Z,32.06
2019-04-22T16:55:23.555Z,31.31
2019-04-22T17:00:26.939Z,30.35
2019-04-22T17:05:59.250Z,29.91
2019-04-22T17:11:04.026Z,29.55
2019-04-22T17:16:07.073Z,31.61
2019-04-22T17:21:10.621Z,32.80
2019-04-22T17:26:14.589Z,32.31
2019-04-22T17:31:16.836Z,31.68
2019-04-22T17:36:20.283Z,32.13
2019-04-22T17:41:38.627Z,33.17
2019-04-22T17:46:51.074Z,31.32
2019-04-22T17:52:21.216Z,32.57
2019-04-22T17:57:21.607Z,33.48
2019-04-22T18:02:25.177Z,32.10
2019-04-22T18:07:35.814Z,33.87
2019-04-22T18:17:43.051Z,35.57
2019-04-22T18:22:37.256Z,35.84
2019-04-22T18:27:55.271Z,36.28
2019-04-22T18:32:52.185Z,36.67
2019-04-22T18:37:53.744Z,37.36
2019-04-22T18:43:06.228Z,37.96
2019-04-22T18:48:00.953Z,38.24
2019-04-22T18:53:23.329Z,36.92
2019-04-22T18:58:16.304Z,36.83
2019-04-22T19:03:15.622Z,35.94
2019-04-22T19:08:31.544Z,37.26
2019-04-22T19:18:45.970Z,38.39
2019-04-22T19:23:49.155Z,35.96
2019-04-22T19:29:00.738Z,32.80
2019-04-22T19:34:06.211Z,33.53
2019-04-22T19:39:06.965Z,33.13
2019-04-22T19:44:17.748Z,33.99
2019-04-22T19:49:23.766Z,35.93
2019-04-22T19:54:17.401Z,32.87
2019-04-22T19:59:25.368Z,35.45
2019-04-22T20:05:02.778Z,35.72
2019-04-22T20:10:00.129Z,39.13
2019-04-22T20:15:00.402Z,39.25
2019-04-22T20:20:09.683Z,46.99
2019-04-22T20:24:56.430Z,50.27
2019-04-22T20:30:13.999Z,61.51
2019-04-22T20:35:21.599Z,57.82
2019-04-22T20:40:29.787Z,59.96
2019-04-22T20:45:34.795Z,66.27
2019-04-22T20:50:36.386Z,66.62
2019-04-22T20:55:42.041Z,70.97
2019-04-22T21:00:38.917Z,71.06
2019-04-22T21:05:47.145Z,70.41
2019-04-22T21:10:52.094Z,69.79
2019-04-22T21:16:11.650Z,66.52
2019-04-22T21:21:07.180Z,58.95
2019-04-22T21:26:13.828Z,65.77
2019-04-22T21:31:23.724Z,60.39
2019-04-22T21:41:24.910Z,57.90
2019-04-22T21:46:33.513Z,55.16
2019-04-22T21:51:39.928Z,59.02
2019-04-22T21:57:09.128Z,53.14
2019-04-22T22:02:16.198Z,50.69
2019-04-22T22:06:57.768Z,52.16
2019-04-22T22:12:10.380Z,50.48
2019-04-22T22:17:20.642Z,48.91
2019-04-22T22:22:42.243Z,48.48
2019-04-22T22:27:34.254Z,50.12
2019-04-22T22:32:33.767Z,50.73
2019-04-22T22:37:28.321Z,48.37
2019-04-22T22:42:30.156Z,49.08
2019-04-22T22:47:45.672Z,51.15
2019-04-22T22:52:58.972Z,51.68
2019-04-22T22:57:58.374Z,52.88
2019-04-22T23:03:24.605Z,48.21
2019-04-22T23:08:15.633Z,47.93
2019-04-22T23:13:20.460Z,51.47
2019-04-22T23:17:51.879Z,51.51
2019-04-22T23:23:17.243Z,53.32
2019-04-22T23:28:29.832Z,55.36
2019-04-22T23:33:42.726Z,53.13
2019-04-22T23:38:51.892Z,58.25
2019-04-22T23:43:55.671Z,54.55
2019-04-22T23:48:51.938Z,56.17
2019-04-22T23:54:18.677Z,56.85
2019-04-22T23:59:10.292Z,61.23
